Time;durP1;ratioP1;P1;durP2;ratioP2;P2;SDS_P1;SDS_P2;PMS_P1;PMS_P2;Temp;Humidity;BMP_temperature;BMP_pressure;BME280_temperature;BME280_humidity;BME280_pressure;Samples;Min_cycle;Max_cycle;Signal;HPM_P1;HPM_P2
2021/04/09 00:01:44;;;;;;;9.63;6.10;;;7.30;56.90;;;;;;5033797;28;20083;-71
2021/04/09 00:04:12;;;;;;;10.55;6.40;;;7.30;56.90;;;;;;5035040;28;20052;-72
2021/04/09 00:06:38;;;;;;;10.27;6.20;;;7.30;56.90;;;;;;5033680;28;20041;-71
2021/04/09 00:09:08;;;;;;;11.05;6.43;;;7.40;56.90;;;;;;5033493;28;20086;-71
2021/04/09 00:11:35;;;;;;;11.32;6.10;;;7.40;56.90;;;;;;5033355;28;20036;-73
2021/04/09 00:14:01;;;;;;;14.35;6.50;;;7.30;56.80;;;;;;5033336;28;20056;-72
2021/04/09 00:16:27;;;;;;;10.45;5.68;;;7.30;56.90;;;;;;5034660;28;20512;-72
2021/04/09 00:18:53;;;;;;;10.30;6.18;;;7.30;56.90;;;;;;5034792;28;20180;-72
2021/04/09 00:21:19;;;;;;;12.98;6.65;;;7.30;56.90;;;;;;5034762;28;20029;-73
2021/04/09 00:23:44;;;;;;;9.65;6.50;;;7.30;56.90;;;;;;5033369;28;20030;-72
2021/04/09 00:26:10;;;;;;;10.93;6.78;;;7.30;57.00;;;;;;5033188;28;20021;-72
2021/04/09 00:28:36;;;;;;;11.40;6.63;;;7.30;57.00;;;;;;5033687;28;20036;-71
2021/04/09 00:31:01;;;;;;;11.80;6.35;;;7.30;57.10;;;;;;5033167;28;20021;-71
2021/04/09 00:33:27;;;;;;;14.05;6.70;;;7.20;57.10;;;;;;5033158;28;20029;-72
2021/04/09 00:35:53;;;;;;;11.77;6.95;;;7.20;57.20;;;;;;5034364;28;20029;-73
2021/04/09 00:38:19;;;;;;;7.93;6.18;;;7.20;57.20;;;;;;5033087;28;20484;-70
2021/04/09 00:40:44;;;;;;;12.10;6.80;;;7.20;57.30;;;;;;5033058;28;20030;-71
2021/04/09 00:43:10;;;;;;;9.15;6.18;;;7.20;57.30;;;;;;5032927;28;20032;-71
2021/04/09 00:45:37;;;;;;;10.75;6.53;;;7.20;57.40;;;;;;5034333;28;20125;-71
2021/04/09 00:48:04;;;;;;;8.25;6.03;;;7.20;57.50;;;;;;5032888;28;20022;-71
2021/04/09 00:50:30;;;;;;;11.80;6.80;;;7.20;57.50;;;;;;5034224;28;20032;-71
2021/04/09 00:52:58;;;;;;;10.80;6.28;;;7.20;57.50;;;;;;5034162;28;20537;-71
2021/04/09 00:55:24;;;;;;;12.20;6.70;;;7.20;57.50;;;;;;5034091;28;20029;-71
2021/04/09 00:57:51;;;;;;;9.38;6.13;;;7.20;57.50;;;;;;5032618;28;20033;-71
2021/04/09 01:00:18;;;;;;;11.70;7.25;;;7.20;57.50;;;;;;5032724;28;20079;-71
2021/04/09 01:02:44;;;;;;;11.88;7.07;;;7.20;57.50;;;;;;5032525;28;20033;-71
2021/04/09 01:05:12;;;;;;;8.73;6.38;;;7.20;57.60;;;;;;5032537;28;20177;-71
2021/04/09 01:07:42;;;;;;;10.07;6.97;;;7.20;57.70;;;;;;5033940;28;20036;-71
2021/04/09 01:10:09;;;;;;;10.18;6.07;;;7.20;57.70;;;;;;5031479;28;20025;-71
2021/04/09 01:12:35;;;;;;;8.93;6.72;;;7.20;57.70;;;;;;5032390;28;20025;-71
2021/04/09 01:15:01;;;;;;;10.85;6.72;;;7.20;57.80;;;;;;5032250;28;20060;-71
2021/04/09 01:17:37;;;;;;;11.50;7.03;;;7.20;57.90;;;;;;5033484;28;20059;-71
2021/04/09 01:20:18;;;;;;;13.65;7.45;;;7.20;57.90;;;;;;5034079;28;20497;-71
2021/04/09 01:23:17;;;;;;;10.98;6.57;;;7.20;57.90;;;;;;5033437;28;20029;-70
2021/04/09 01:26:01;;;;;;;15.07;6.80;;;7.20;57.90;;;;;;5032121;28;20112;-71
2021/04/09 01:28:40;;;;;;;8.48;6.30;;;7.20;58.00;;;;;;5031919;28;20045;-72
2021/04/09 01:31:43;;;;;;;11.23;7.13;;;7.20;58.00;;;;;;5033306;28;20452;-71
2021/04/09 01:34:10;;;;;;;9.95;6.50;;;7.20;58.10;;;;;;5033307;28;20053;-70
2021/04/09 01:36:45;;;;;;;11.38;6.90;;;7.10;58.00;;;;;;5032169;28;20492;-71
2021/04/09 01:39:19;;;;;;;9.40;6.80;;;7.10;58.20;;;;;;5031975;28;20034;-71
2021/04/09 01:41:49;;;;;;;12.23;7.28;;;7.10;58.20;;;;;;5033273;28;20139;-71
2021/04/09 01:44:20;;;;;;;10.98;6.40;;;7.10;58.30;;;;;;5031762;28;20117;-71
2021/04/09 01:46:49;;;;;;;9.80;6.93;;;7.10;58.30;;;;;;5031738;28;20048;-71
2021/04/09 01:49:15;;;;;;;10.93;7.30;;;7.10;58.30;;;;;;5033028;28;20029;-71
2021/04/09 01:51:45;;;;;;;12.23;6.95;;;7.10;58.90;;;;;;5033129;28;20048;-71
2021/04/09 01:54:13;;;;;;;8.45;6.40;;;7.10;58.30;;;;;;5032997;28;20029;-71
2021/04/09 01:56:40;;;;;;;10.93;7.03;;;7.20;58.40;;;;;;5033123;28;20036;-71
2021/04/09 01:59:07;;;;;;;10.75;7.13;;;7.10;58.40;;;;;;5031617;28;20087;-70
2021/04/09 02:01:37;;;;;;;11.40;6.47;;;7.10;58.40;;;;;;5031509;28;20030;-71
2021/04/09 02:04:04;;;;;;;11.98;7.32;;;7.10;58.50;;;;;;5031525;28;20030;-71
2021/04/09 02:06:32;;;;;;;14.55;8.05;;;7.10;58.60;;;;;;5031372;28;20491;-71
2021/04/09 02:08:59;;;;;;;11.50;7.07;;;7.10;58.60;;;;;;5032882;28;20036;-71
2021/04/09 02:11:25;;;;;;;11.73;7.47;;;7.10;58.70;;;;;;5032874;28;20029;-71
2021/04/09 02:13:52;;;;;;;10.32;6.93;;;7.10;58.80;;;;;;5030599;28;20034;-70
2021/04/09 02:16:19;;;;;;;12.00;6.93;;;7.10;58.80;;;;;;5032820;28;20033;-71
2021/04/09 02:18:45;;;;;;;9.32;6.50;;;7.10;58.90;;;;;;5032793;28;20025;-71
2021/04/09 02:21:10;;;;;;;10.00;7.05;;;7.10;58.90;;;;;;5032413;28;20029;-71
2021/04/09 02:23:36;;;;;;;12.20;6.90;;;7.10;58.90;;;;;;5031530;28;20026;-71
2021/04/09 02:26:03;;;;;;;10.70;6.78;;;7.10;59.00;;;;;;5032721;28;20026;-71
2021/04/09 02:28:29;;;;;;;12.32;6.47;;;7.10;59.00;;;;;;5031219;28;20489;-71
2021/04/09 02:31:11;;;;;;;12.35;7.30;;;7.10;59.00;;;;;;5031257;28;20033;-71
2021/04/09 02:33:37;;;;;;;11.18;7.10;;;7.10;59.00;;;;;;5031302;28;20428;-71
2021/04/09 02:36:24;;;;;;;10.15;7.00;;;7.10;59.10;;;;;;5031383;28;20079;-70
2021/04/09 02:38:53;;;;;;;11.93;7.70;;;7.10;59.20;;;;;;5032685;28;20057;-71
2021/04/09 02:41:21;;;;;;;19.17;11.65;;;7.10;59.20;;;;;;5032504;28;20104;-70
2021/04/09 02:43:47;;;;;;;13.95;8.77;;;7.10;59.30;;;;;;5031427;28;20033;-72
2021/04/09 02:46:39;;;;;;;15.48;8.27;;;7.10;59.30;;;;;;5032394;28;20032;-71
2021/04/09 02:49:48;;;;;;;12.20;7.55;;;7.10;59.30;;;;;;5031105;28;20064;-71
2021/04/09 02:52:17;;;;;;;11.13;7.32;;;7.10;59.30;;;;;;5032230;28;20096;-71
2021/04/09 02:54:48;;;;;;;13.00;7.30;;;7.10;59.30;;;;;;5032592;28;20036;-71
2021/04/09 02:57:15;;;;;;;11.18;7.35;;;7.10;59.30;;;;;;5031021;28;20025;-71
2021/04/09 02:59:41;;;;;;;14.55;7.90;;;7.10;59.30;;;;;;5032470;28;20030;-70
2021/04/09 03:02:07;;;;;;;12.63;8.00;;;7.20;59.50;;;;;;5031062;28;20457;-71
2021/04/09 03:04:34;;;;;;;11.45;7.22;;;7.10;59.50;;;;;;5032459;28;20030;-71
2021/04/09 03:07:00;;;;;;;14.13;8.07;;;7.10;59.50;;;;;;5032315;28;20509;-71
2021/04/09 03:09:25;;;;;;;14.43;7.68;;;7.10;59.60;;;;;;5030975;28;20077;-71
2021/04/09 03:11:51;;;;;;;13.05;7.75;;;7.10;59.60;;;;;;5032341;28;20081;-71
2021/04/09 03:14:18;;;;;;;12.43;7.82;;;7.10;59.60;;;;;;5030733;28;20042;-71
2021/04/09 03:16:49;;;;;;;14.40;7.88;;;7.10;60.30;;;;;;5032087;28;20022;-70
2021/04/09 03:19:15;;;;;;;11.52;7.30;;;7.10;59.70;;;;;;5030885;28;20029;-71
2021/04/09 03:21:40;;;;;;;16.45;8.60;;;7.10;59.70;;;;;;5030921;28;20548;-71
2021/04/09 03:24:07;;;;;;;14.10;8.23;;;7.10;59.80;;;;;;5032580;28;20492;-71
2021/04/09 03:26:33;;;;;;;18.25;8.48;;;7.10;59.90;;;;;;5030831;28;20037;-70
2021/04/09 03:28:59;;;;;;;13.07;8.15;;;7.10;59.90;;;;;;5030909;28;20369;-70
2021/04/09 03:31:25;;;;;;;15.40;8.65;;;7.10;60.00;;;;;;5032162;28;20072;-71
2021/04/09 03:33:50;;;;;;;13.90;8.13;;;7.10;60.00;;;;;;5033262;28;20029;-71
2021/04/09 03:36:17;;;;;;;16.63;8.73;;;7.10;60.10;;;;;;5034241;28;20120;-70
2021/04/09 03:38:43;;;;;;;15.80;7.88;;;7.10;60.00;;;;;;5034146;28;20057;-71
2021/04/09 03:41:09;;;;;;;13.30;8.07;;;7.10;60.10;;;;;;5035509;28;20496;-70
2021/04/09 03:43:34;;;;;;;10.93;7.25;;;7.10;60.20;;;;;;5034164;28;20503;-70
2021/04/09 03:46:00;;;;;;;12.43;7.25;;;7.10;60.20;;;;;;5035370;28;20025;-71
2021/04/09 03:48:25;;;;;;;14.18;6.85;;;7.10;60.20;;;;;;5033940;28;20025;-71
2021/04/09 03:50:51;;;;;;;12.18;7.60;;;7.10;60.20;;;;;;5033837;28;20029;-71
2021/04/09 03:53:17;;;;;;;10.88;6.57;;;7.10;60.30;;;;;;5033851;28;20163;-70
2021/04/09 03:55:42;;;;;;;12.00;7.25;;;7.10;60.30;;;;;;5033964;28;20110;-71
2021/04/09 03:58:08;;;;;;;13.10;7.50;;;7.10;60.40;;;;;;5035175;28;20432;-71
2021/04/09 04:00:34;;;;;;;13.80;7.30;;;7.10;60.50;;;;;;5035283;28;20060;-71
2021/04/09 04:03:00;;;;;;;11.13;6.95;;;7.00;60.50;;;;;;5035094;28;20030;-71
2021/04/09 04:05:25;;;;;;;13.13;7.25;;;7.10;60.60;;;;;;5035560;28;20069;-70
2021/04/09 04:07:51;;;;;;;13.40;7.80;;;7.10;61.20;;;;;;5033533;28;20038;-70
2021/04/09 04:10:17;;;;;;;15.02;8.18;;;7.00;60.60;;;;;;5034795;28;20057;-71
2021/04/09 04:12:43;;;;;;;12.00;7.50;;;7.00;60.80;;;;;;5034957;28;20440;-70
2021/04/09 04:15:08;;;;;;;13.70;7.35;;;7.00;60.80;;;;;;5034567;28;20096;-70
2021/04/09 04:17:34;;;;;;;12.70;7.30;;;7.00;60.90;;;;;;5033374;28;20036;-71
2021/04/09 04:20:00;;;;;;;11.85;6.53;;;7.00;60.90;;;;;;5034834;28;20458;-70
2021/04/09 04:22:25;;;;;;;11.90;7.40;;;7.00;60.90;;;;;;5034654;28;20068;-71
2021/04/09 04:24:52;;;;;;;12.40;7.07;;;7.00;60.90;;;;;;5033344;28;20068;-70
2021/04/09 04:27:18;;;;;;;12.52;6.85;;;7.00;61.00;;;;;;5033241;28;20030;-71
2021/04/09 04:29:44;;;;;;;9.75;6.38;;;7.00;61.00;;;;;;5033197;28;20030;-70
2021/04/09 04:32:09;;;;;;;10.40;6.60;;;7.00;61.00;;;;;;5033143;28;20179;-70
2021/04/09 04:34:35;;;;;;;10.15;6.43;;;7.00;61.00;;;;;;5033126;28;20029;-71
2021/04/09 04:37:01;;;;;;;10.35;6.60;;;7.00;61.00;;;;;;5034439;28;20029;-70
2021/04/09 04:39:26;;;;;;;11.43;6.53;;;7.00;61.10;;;;;;5034480;28;20097;-70
2021/04/09 04:41:53;;;;;;;9.90;6.47;;;7.00;61.10;;;;;;5032967;28;20055;-70
2021/04/09 04:44:18;;;;;;;9.15;6.50;;;7.00;61.20;;;;;;5033952;28;20436;-70
2021/04/09 04:46:44;;;;;;;12.32;6.53;;;7.00;61.20;;;;;;5032766;28;20033;-70
2021/04/09 04:49:10;;;;;;;11.65;6.90;;;7.00;61.20;;;;;;5034037;28;20065;-70
2021/04/09 04:51:35;;;;;;;14.65;6.70;;;7.00;61.20;;;;;;5033867;28;20410;-71
2021/04/09 04:54:01;;;;;;;10.48;6.72;;;7.00;61.20;;;;;;5032592;28;20477;-70
2021/04/09 04:56:27;;;;;;;14.10;7.03;;;7.00;61.30;;;;;;5033714;28;20044;-71
2021/04/09 04:58:53;;;;;;;10.75;6.18;;;7.10;61.30;;;;;;5032570;28;20053;-70
2021/04/09 05:01:18;;;;;;;11.70;7.20;;;7.00;61.20;;;;;;5034046;28;20124;-70
2021/04/09 05:03:44;;;;;;;11.07;7.07;;;7.10;61.30;;;;;;5032191;28;20113;-70
2021/04/09 05:06:10;;;;;;;12.27;7.00;;;7.10;61.30;;;;;;5033813;28;20033;-71
2021/04/09 05:08:35;;;;;;;11.80;7.18;;;7.10;61.40;;;;;;5032299;28;20163;-70
2021/04/09 05:11:01;;;;;;;10.85;7.07;;;7.10;62.10;;;;;;5033510;28;20040;-71
2021/04/09 05:13:26;;;;;;;12.15;6.90;;;7.10;61.40;;;;;;5033506;28;20033;-70
2021/04/09 05:15:52;;;;;;;9.18;6.60;;;7.00;61.40;;;;;;5031948;28;20049;-70
2021/04/09 05:18:18;;;;;;;12.82;7.22;;;7.00;61.50;;;;;;5032012;28;20480;-70
2021/04/09 05:20:43;;;;;;;11.88;6.63;;;7.00;61.50;;;;;;5033808;28;20380;-70
2021/04/09 05:23:09;;;;;;;9.52;6.55;;;7.00;61.50;;;;;;5032021;28;20480;-70
2021/04/09 05:25:35;;;;;;;12.27;6.35;;;7.10;61.60;;;;;;5033584;28;20032;-70
2021/04/09 05:28:01;;;;;;;12.43;6.90;;;7.10;61.60;;;;;;5033056;28;20087;-69
2021/04/09 05:30:27;;;;;;;11.60;7.15;;;7.00;61.60;;;;;;5031777;28;20025;-70
2021/04/09 05:32:54;;;;;;;11.68;6.47;;;7.00;61.60;;;;;;5033438;28;20457;-70
2021/04/09 05:35:22;;;;;;;15.07;7.45;;;7.00;61.60;;;;;;5032473;28;20475;-70
2021/04/09 05:37:47;;;;;;;11.15;6.93;;;7.00;61.60;;;;;;5031763;28;20083;-70
2021/04/09 05:40:14;;;;;;;12.27;7.20;;;7.10;61.60;;;;;;5031528;28;20437;-70
2021/04/09 05:42:40;;;;;;;10.18;6.38;;;7.10;61.60;;;;;;5033058;28;20029;-70
2021/04/09 05:45:07;;;;;;;11.15;6.30;;;7.10;61.60;;;;;;5031481;28;20412;-70
2021/04/09 05:47:33;;;;;;;12.13;6.43;;;7.10;61.60;;;;;;5032971;28;20385;-69
2021/04/09 05:49:58;;;;;;;11.07;7.25;;;7.10;61.60;;;;;;5031342;28;20017;-70
2021/04/09 05:52:24;;;;;;;11.55;6.93;;;7.20;61.70;;;;;;5032497;28;20032;-70
2021/04/09 05:54:50;;;;;;;11.20;6.50;;;7.20;61.70;;;;;;5031079;28;20022;-70
2021/04/09 05:57:15;;;;;;;13.98;7.03;;;7.20;61.70;;;;;;5030837;28;20337;-70
2021/04/09 05:59:41;;;;;;;12.07;7.65;;;7.20;61.70;;;;;;5032733;28;20021;-70
2021/04/09 06:02:07;;;;;;;11.20;7.38;;;7.20;61.70;;;;;;5030923;28;20029;-70
2021/04/09 06:04:33;;;;;;;9.02;6.72;;;7.20;61.70;;;;;;5032755;28;20025;-70
2021/04/09 06:06:59;;;;;;;10.88;6.75;;;7.20;61.70;;;;;;5030940;28;20079;-70
2021/04/09 06:09:24;;;;;;;9.88;6.28;;;7.30;61.70;;;;;;5032485;28;20428;-70
2021/04/09 06:11:50;;;;;;;9.15;6.35;;;7.30;61.60;;;;;;5031192;28;20033;-70
2021/04/09 06:14:17;;;;;;;11.95;6.82;;;7.30;61.50;;;;;;5032452;28;20456;-70
2021/04/09 06:16:43;;;;;;;13.02;6.22;;;7.40;61.60;;;;;;5031277;28;20021;-70
2021/04/09 06:19:09;;;;;;;11.63;6.82;;;7.40;61.50;;;;;;5032564;28;20025;-70
2021/04/09 06:21:35;;;;;;;11.95;6.57;;;7.40;61.40;;;;;;5032738;28;20528;-70
2021/04/09 06:24:02;;;;;;;11.02;6.63;;;7.50;61.40;;;;;;5030911;28;20069;-69
2021/04/09 06:26:28;;;;;;;12.02;7.05;;;7.60;61.40;;;;;;5031115;28;20361;-70
2021/04/09 06:28:55;;;;;;;9.70;6.30;;;7.70;61.30;;;;;;5030974;28;20018;-70
2021/04/09 06:31:21;;;;;;;14.82;6.95;;;7.70;61.20;;;;;;5032731;28;20495;-71
2021/04/09 06:33:47;;;;;;;11.20;6.57;;;7.70;61.10;;;;;;5032244;28;20052;-71
2021/04/09 06:36:12;;;;;;;10.60;6.40;;;7.80;61.10;;;;;;5032299;28;20495;-70
2021/04/09 06:38:38;;;;;;;12.85;6.03;;;7.80;61.10;;;;;;5031203;28;20021;-70
2021/04/09 06:41:04;;;;;;;11.23;6.68;;;7.80;61.10;;;;;;5031250;28;20481;-71
2021/04/09 06:43:30;;;;;;;12.25;6.95;;;7.90;61.00;;;;;;5030921;28;20136;-71
2021/04/09 06:45:56;;;;;;;10.38;6.80;;;8.00;60.90;;;;;;5031198;28;20032;-71
2021/04/09 06:48:21;;;;;;;8.63;5.85;;;8.00;60.80;;;;;;5032397;28;20025;-71
2021/04/09 06:50:47;;;;;;;10.73;6.50;;;8.10;60.80;;;;;;5032267;28;20040;-71
2021/04/09 06:53:13;;;;;;;9.65;6.47;;;8.10;60.70;;;;;;5031087;28;20079;-71
2021/04/09 06:55:44;;;;;;;8.55;6.10;;;8.20;60.70;;;;;;5030777;28;20079;-71
2021/04/09 06:58:17;;;;;;;9.98;6.03;;;8.20;60.70;;;;;;5032410;28;20527;-71
2021/04/09 07:00:43;;;;;;;11.23;6.47;;;8.30;60.60;;;;;;5031232;28;20518;-71
2021/04/09 07:03:10;;;;;;;10.38;6.85;;;8.30;60.50;;;;;;5030818;28;20024;-71
2021/04/09 07:05:38;;;;;;;9.77;6.30;;;8.40;60.40;;;;;;5031133;28;20021;-71
2021/04/09 07:08:04;;;;;;;8.82;5.50;;;8.50;60.40;;;;;;5035241;28;20029;-71
2021/04/09 07:10:31;;;;;;;13.18;6.53;;;8.50;60.40;;;;;;5035798;28;20420;-71
2021/04/09 07:13:10;;;;;;;11.00;6.72;;;8.50;60.30;;;;;;5035746;28;20075;-71
2021/04/09 07:15:41;;;;;;;10.23;6.28;;;8.60;60.30;;;;;;5035610;28;20045;-71
2021/04/09 07:18:09;;;;;;;11.95;6.35;;;8.50;60.20;;;;;;5036086;28;20025;-71
2021/04/09 07:20:36;;;;;;;7.75;5.30;;;8.50;60.30;;;;;;5034192;28;20026;-71
2021/04/09 07:23:04;;;;;;;7.97;5.50;;;8.60;60.30;;;;;;5035383;28;20464;-71
2021/04/09 07:25:33;;;;;;;7.88;5.75;;;8.60;60.30;;;;;;5033840;28;20083;-71
2021/04/09 07:28:17;;;;;;;10.18;6.13;;;8.70;60.30;;;;;;5035511;28;20065;-71
2021/04/09 07:30:54;;;;;;;10.00;6.00;;;8.70;60.20;;;;;;5033980;28;20424;-71
2021/04/09 07:33:27;;;;;;;8.75;6.18;;;8.80;60.20;;;;;;5033782;28;20036;-71
2021/04/09 07:35:58;;;;;;;8.70;5.82;;;8.90;60.00;;;;;;5035130;28;20044;-70
2021/04/09 07:38:35;;;;;;;10.25;6.30;;;8.90;60.00;;;;;;5035028;28;20109;-71
2021/04/09 07:41:09;;;;;;;9.38;5.88;;;9.00;60.00;;;;;;5034997;28;20112;-71
2021/04/09 07:43:39;;;;;;;11.57;7.10;;;9.10;60.00;;;;;;5033669;28;20400;-71
2021/04/09 07:46:07;;;;;;;9.88;6.53;;;9.10;60.00;;;;;;5033584;28;20026;-71
2021/04/09 07:48:36;;;;;;;9.07;6.07;;;9.30;60.00;;;;;;5034878;28;20021;-71
2021/04/09 07:51:03;;;;;;;26.23;6.63;;;9.30;59.80;;;;;;5033757;28;20507;-70
2021/04/09 07:53:31;;;;;;;10.57;7.07;;;9.40;59.80;;;;;;5034946;28;20501;-70
2021/04/09 07:56:11;;;;;;;8.70;6.38;;;9.50;59.60;;;;;;5033586;28;20495;-71
2021/04/09 07:58:40;;;;;;;10.77;5.63;;;9.50;59.60;;;;;;5033602;28;20029;-71
2021/04/09 08:01:26;;;;;;;10.88;6.22;;;9.60;59.70;;;;;;5033444;28;20017;-71
2021/04/09 08:03:53;;;;;;;10.52;6.95;;;9.70;59.60;;;;;;5034741;28;20361;-72
2021/04/09 08:06:23;;;;;;;10.05;6.07;;;9.70;59.40;;;;;;5034742;28;20026;-72
2021/04/09 08:08:48;;;;;;;9.70;5.68;;;9.70;59.50;;;;;;5034753;28;20029;-71
2021/04/09 08:11:18;;;;;;;10.25;6.00;;;9.70;59.70;;;;;;5034682;28;20025;-71
2021/04/09 08:13:44;;;;;;;8.50;6.43;;;9.80;59.80;;;;;;5031787;28;20013;-70
2021/04/09 08:16:30;;;;;;;8.02;5.72;;;9.80;59.60;;;;;;5032448;28;20048;-70
2021/04/09 08:18:58;;;;;;;12.13;6.82;;;9.90;59.70;;;;;;5032459;28;20057;-70
2021/04/09 08:21:26;;;;;;;10.20;6.45;;;9.90;59.70;;;;;;5033109;28;20365;-70
2021/04/09 08:23:54;;;;;;;11.18;6.60;;;9.90;59.80;;;;;;5032963;28;20033;-70
2021/04/09 08:26:20;;;;;;;11.85;7.43;;;9.90;59.80;;;;;;5034177;28;20482;-70
2021/04/09 08:28:47;;;;;;;8.60;6.25;;;9.90;59.80;;;;;;5032669;28;20041;-69
2021/04/09 08:31:13;;;;;;;10.45;6.22;;;9.90;60.00;;;;;;5034465;28;20029;-70
2021/04/09 08:33:39;;;;;;;10.00;5.97;;;9.90;60.10;;;;;;5034147;28;20156;-70
2021/04/09 08:36:06;;;;;;;8.98;6.20;;;9.90;60.10;;;;;;5034020;28;20053;-70
2021/04/09 08:38:31;;;;;;;10.25;5.70;;;10.00;60.10;;;;;;5032738;28;20035;-70
2021/04/09 08:40:57;;;;;;;9.48;6.68;;;10.10;60.00;;;;;;5033914;28;20033;-69
2021/04/09 08:43:24;;;;;;;7.40;5.50;;;10.20;59.80;;;;;;5032410;28;20030;-69
2021/04/09 08:45:51;;;;;;;9.50;5.63;;;10.20;59.80;;;;;;5034003;28;20069;-70
2021/04/09 08:48:18;;;;;;;10.38;6.82;;;10.30;59.80;;;;;;5033667;28;20088;-70
2021/04/09 08:50:43;;;;;;;9.48;6.00;;;10.40;59.80;;;;;;5032616;28;20041;-70
2021/04/09 08:53:09;;;;;;;10.65;6.80;;;10.40;59.70;;;;;;5032547;28;20055;-70
2021/04/09 08:55:39;;;;;;;9.05;6.43;;;10.50;59.70;;;;;;5033996;28;20034;-70
2021/04/09 08:58:18;;;;;;;8.70;5.53;;;10.60;59.40;;;;;;5033681;28;20481;-70
2021/04/09 09:00:44;;;;;;;10.63;6.25;;;10.80;59.30;;;;;;5032362;28;20025;-70
2021/04/09 09:03:22;;;;;;;9.77;5.55;;;10.90;58.90;;;;;;5033728;28;20078;-71
2021/04/09 09:06:03;;;;;;;8.52;6.03;;;10.90;58.70;;;;;;5032290;28;20068;-71
2021/04/09 09:08:50;;;;;;;7.53;5.35;;;11.10;58.70;;;;;;5033379;28;20432;-72
2021/04/09 09:11:49;;;;;;;10.82;5.50;;;11.20;58.50;;;;;;5033591;28;20028;-71
2021/04/09 09:14:33;;;;;;;9.60;5.70;;;11.20;58.50;;;;;;5033287;28;20037;-71
2021/04/09 09:17:16;;;;;;;9.70;5.25;;;11.20;58.50;;;;;;5033920;28;20041;-71
2021/04/09 09:19:42;;;;;;;8.15;5.07;;;11.30;58.50;;;;;;5033231;28;20041;-71
2021/04/09 09:22:14;;;;;;;9.32;5.50;;;11.40;58.40;;;;;;5033458;28;20112;-71
2021/04/09 09:25:02;;;;;;;11.25;6.45;;;11.40;58.10;;;;;;5033346;28;20057;-71
2021/04/09 09:27:48;;;;;;;7.22;5.57;;;11.40;58.00;;;;;;5033544;28;20116;-71
2021/04/09 09:30:42;;;;;;;6.72;4.65;;;11.40;58.00;;;;;;5031319;28;20044;-71
2021/04/09 09:33:34;;;;;;;6.93;4.80;;;11.50;58.00;;;;;;5033159;28;20025;-71
2021/04/09 09:36:12;;;;;;;7.35;4.90;;;11.50;57.90;;;;;;5029441;28;20076;-71
2021/04/09 09:38:51;;;;;;;7.90;5.43;;;11.60;57.90;;;;;;5033242;28;20025;-71
2021/04/09 09:41:37;;;;;;;7.70;5.95;;;11.70;57.70;;;;;;5032867;28;20524;-71
2021/04/09 09:44:32;;;;;;;9.32;5.32;;;11.80;57.50;;;;;;5032989;28;20048;-71
2021/04/09 09:47:06;;;;;;;10.13;5.90;;;11.90;57.30;;;;;;5033040;28;20502;-71
2021/04/09 09:49:35;;;;;;;7.32;4.93;;;12.00;57.30;;;;;;5033090;28;20334;-71
2021/04/09 09:52:20;;;;;;;6.82;4.78;;;12.10;57.30;;;;;;5033029;28;20021;-71
2021/04/09 09:55:09;;;;;;;5.95;4.35;;;12.10;56.70;;;;;;5031855;28;20022;-71
2021/04/09 09:57:48;;;;;;;8.93;5.10;;;12.20;56.80;;;;;;5032923;28;20130;-71
2021/04/09 10:00:23;;;;;;;8.18;4.40;;;12.30;56.40;;;;;;5031626;28;20033;-70
2021/04/09 10:02:48;;;;;;;5.50;3.70;;;12.30;56.10;;;;;;5033125;28;20036;-70
2021/04/09 10:05:14;;;;;;;5.28;4.10;;;12.30;56.00;;;;;;5032899;28;20022;-71
2021/04/09 10:07:40;;;;;;;6.13;3.72;;;12.40;55.50;;;;;;5032740;28;20050;-70
2021/04/09 10:10:07;;;;;;;8.63;4.13;;;12.40;55.40;;;;;;5032852;28;20040;-70
2021/04/09 10:12:32;;;;;;;7.82;4.40;;;12.40;54.90;;;;;;5031513;28;20026;-69
2021/04/09 10:14:58;;;;;;;5.65;3.78;;;12.40;54.80;;;;;;5032710;28;20045;-70
2021/04/09 10:17:23;;;;;;;7.93;4.05;;;12.40;55.00;;;;;;5032816;28;20481;-69
2021/04/09 10:19:57;;;;;;;6.15;4.28;;;12.30;55.00;;;;;;5032666;28;20095;-70
2021/04/09 10:22:23;;;;;;;5.50;4.18;;;12.30;55.00;;;;;;5031394;28;20061;-70
2021/04/09 10:24:49;;;;;;;7.47;4.55;;;12.20;55.10;;;;;;5033135;28;20064;-70
2021/04/09 10:27:15;;;;;;;7.07;4.20;;;12.10;55.20;;;;;;5031256;28;20083;-70
2021/04/09 10:29:40;;;;;;;7.38;4.22;;;12.10;55.50;;;;;;5032824;28;20029;-70
2021/04/09 10:32:18;;;;;;;8.98;4.72;;;12.10;55.60;;;;;;5032575;28;20092;-70
2021/04/09 10:34:49;;;;;;;5.53;4.32;;;12.10;55.60;;;;;;5032588;28;20493;-70
2021/04/09 10:37:25;;;;;;;5.43;4.10;;;12.10;55.70;;;;;;5031407;28;20036;-70
2021/04/09 10:39:52;;;;;;;6.20;4.60;;;12.10;55.40;;;;;;5032622;28;20036;-70
2021/04/09 10:42:19;;;;;;;7.28;3.92;;;12.00;55.50;;;;;;5033181;28;20037;-70
2021/04/09 10:44:45;;;;;;;7.05;4.65;;;12.00;55.60;;;;;;5036559;28;20108;-69
2021/04/09 10:47:11;;;;;;;9.23;4.88;;;11.90;55.80;;;;;;5036460;28;20030;-71
2021/04/09 10:49:42;;;;;;;5.80;4.38;;;11.90;55.90;;;;;;5035143;28;20025;-70
2021/04/09 10:52:17;;;;;;;8.10;4.32;;;11.90;56.00;;;;;;5035120;28;20021;-69
2021/04/09 10:54:44;;;;;;;4.97;4.00;;;12.00;56.10;;;;;;5036403;28;20029;-70
2021/04/09 10:57:13;;;;;;;5.38;3.92;;;12.00;56.10;;;;;;5036552;28;20033;-69
2021/04/09 10:59:44;;;;;;;6.57;3.95;;;12.20;56.00;;;;;;5037057;28;20428;-69
2021/04/09 11:02:17;;;;;;;5.40;3.70;;;12.30;55.70;;;;;;5036156;28;20183;-69
2021/04/09 11:04:52;;;;;;;6.43;3.67;;;12.50;55.40;;;;;;5034893;28;20067;-70
2021/04/09 11:07:18;;;;;;;5.18;3.88;;;12.60;55.20;;;;;;5034614;28;20022;-70
2021/04/09 11:09:49;;;;;;;6.18;3.53;;;12.70;54.90;;;;;;5036066;28;20044;-69
2021/04/09 11:12:20;;;;;;;5.80;3.75;;;12.90;54.50;;;;;;5034717;28;20164;-70
2021/04/09 11:14:51;;;;;;;4.45;3.47;;;12.90;54.20;;;;;;5036324;28;20540;-70
2021/04/09 11:17:27;;;;;;;3.45;3.00;;;13.00;54.40;;;;;;5035547;28;20535;-70
2021/04/09 11:19:58;;;;;;;5.18;2.60;;;13.10;54.10;;;;;;5034794;28;20461;-70
2021/04/09 11:22:26;;;;;;;4.13;2.50;;;13.10;53.70;;;;;;5034677;28;20119;-70
2021/04/09 11:25:06;;;;;;;2.83;2.10;;;13.20;53.40;;;;;;5036006;28;20170;-69
2021/04/09 11:27:33;;;;;;;2.85;1.60;;;13.30;53.10;;;;;;5035791;28;20060;-70
2021/04/09 11:30:18;;;;;;;3.40;1.85;;;13.40;52.30;;;;;;5034530;28;20021;-69
2021/04/09 11:32:52;;;;;;;2.60;2.00;;;13.40;52.10;;;;;;5035788;28;20028;-70
2021/04/09 11:35:20;;;;;;;2.17;1.70;;;13.50;52.10;;;;;;5035628;28;20104;-69
2021/04/09 11:37:54;;;;;;;2.97;2.22;;;13.50;51.50;;;;;;5034452;28;20025;-70
2021/04/09 11:40:37;;;;;;;4.63;2.28;;;13.50;50.90;;;;;;5034344;28;20026;-70
2021/04/09 11:43:05;;;;;;;3.13;2.45;;;13.40;51.50;;;;;;5034288;28;20025;-70
2021/04/09 11:45:37;;;;;;;6.88;2.70;;;13.50;51.60;;;;;;5034332;28;20033;-69
2021/04/09 11:48:20;;;;;;;3.50;2.30;;;13.50;51.40;;;;;;5035528;28;20113;-69
2021/04/09 11:50:46;;;;;;;4.33;2.33;;;13.50;50.60;;;;;;5035460;28;20029;-69
2021/04/09 11:53:12;;;;;;;2.42;2.10;;;13.50;50.50;;;;;;5034124;28;20276;-70
2021/04/09 11:55:39;;;;;;;4.80;2.35;;;13.50;50.20;;;;;;5033977;28;20078;-69
2021/04/09 11:58:16;;;;;;;3.17;2.17;;;13.40;50.30;;;;;;5035375;28;20110;-70
2021/04/09 12:00:57;;;;;;;3.35;2.50;;;13.40;50.50;;;;;;5033641;28;20395;-70
2021/04/09 12:03:43;;;;;;;5.22;2.78;;;13.30;50.90;;;;;;5034894;28;20492;-70
2021/04/09 12:06:19;;;;;;;5.38;2.65;;;13.10;51.20;;;;;;5033574;28;20035;-69
2021/04/09 12:08:46;;;;;;;3.03;2.20;;;13.00;51.50;;;;;;5033381;28;20025;-70
2021/04/09 12:11:12;;;;;;;2.50;1.90;;;13.10;51.50;;;;;;5033252;28;20112;-69
2021/04/09 12:13:43;;;;;;;2.42;1.80;;;13.20;51.40;;;;;;5033420;28;20029;-69
2021/04/09 12:16:08;;;;;;;2.55;1.73;;;13.30;51.50;;;;;;5034641;28;20041;-70
2021/04/09 12:18:34;;;;;;;2.15;1.70;;;13.50;51.20;;;;;;5033868;28;20039;-70
2021/04/09 12:21:00;;;;;;;2.72;2.00;;;13.70;50.80;;;;;;5034777;28;20108;-69
2021/04/09 12:23:27;;;;;;;4.90;2.13;;;13.90;50.10;;;;;;5034874;28;20099;-71
2021/04/09 12:25:57;;;;;;;3.58;2.10;;;14.10;49.80;;;;;;5033431;28;20025;-71
2021/04/09 12:28:23;;;;;;;4.13;2.20;;;14.20;49.80;;;;;;5033699;28;20048;-71
2021/04/09 12:30:49;;;;;;;3.13;2.10;;;14.40;49.70;;;;;;5034721;28;20033;-72
2021/04/09 12:33:14;;;;;;;2.30;1.95;;;14.50;49.20;;;;;;5034578;28;20021;-71
2021/04/09 12:35:40;;;;;;;2.17;1.92;;;14.60;49.20;;;;;;5034485;28;20087;-71
2021/04/09 12:38:05;;;;;;;2.20;1.95;;;14.60;48.70;;;;;;5033365;28;20026;-70
2021/04/09 12:40:31;;;;;;;2.90;2.05;;;14.60;49.00;;;;;;5033205;28;20488;-71
2021/04/09 12:42:58;;;;;;;2.30;1.92;;;14.60;48.60;;;;;;5033120;28;20076;-71
2021/04/09 12:45:23;;;;;;;2.35;1.65;;;14.60;48.30;;;;;;5034386;28;20057;-71
2021/04/09 12:47:49;;;;;;;2.90;1.98;;;14.60;48.30;;;;;;5034349;28;20099;-70
2021/04/09 12:50:15;;;;;;;4.05;1.88;;;14.70;47.40;;;;;;5035790;28;20476;-70
2021/04/09 12:52:40;;;;;;;3.53;1.75;;;14.60;47.40;;;;;;5034717;28;20025;-70
2021/04/09 12:55:07;;;;;;;3.20;1.80;;;14.50;47.50;;;;;;5032967;28;20022;-70
2021/04/09 12:57:33;;;;;;;2.33;2.00;;;14.60;47.60;;;;;;5035911;28;20060;-70
2021/04/09 12:59:58;;;;;;;2.50;1.90;;;14.60;47.40;;;;;;5034715;28;20029;-69